sensor_id;sensor_type;location;lat;lon;timestamp;temperature;humidity
38798;SHT11;24546;52.240;16.826;2022-08-04T00:04:11;22.80;96.40
38798;SHT11;24546;52.240;16.826;2022-08-04T00:09:29;22.70;96.60
38798;SHT11;24546;52.240;16.826;2022-08-04T00:14:33;22.70;96.60
38798;SHT11;24546;52.240;16.826;2022-08-04T00:19:40;22.60;97.10
38798;SHT11;24546;52.240;16.826;2022-08-04T00:24:43;22.60;96.90
38798;SHT11;24546;52.240;16.826;2022-08-04T00:29:46;22.50;96.90
38798;SHT11;24546;52.240;16.826;2022-08-04T00:34:47;22.50;97.10
38798;SHT11;24546;52.240;16.826;2022-08-04T00:39:48;22.50;97.50
38798;SHT11;24546;52.240;16.826;2022-08-04T00:50:14;22.30;97.70
38798;SHT11;24546;52.240;16.826;2022-08-04T01:00:37;22.20;98.00
38798;SHT11;24546;52.240;16.826;2022-08-04T01:16:16;22.00;98.20
38798;SHT11;24546;52.240;16.826;2022-08-04T01:21:36;21.90;98.80
38798;SHT11;24546;52.240;16.826;2022-08-04T01:32:26;21.80;98.60
38798;SHT11;24546;52.240;16.826;2022-08-04T01:38:08;21.70;98.70
38798;SHT11;24546;52.240;16.826;2022-08-04T01:43:13;21.70;98.90
38798;SHT11;24546;52.240;16.826;2022-08-04T01:48:14;21.60;99.20
38798;SHT11;24546;52.240;16.826;2022-08-04T01:53:16;21.60;99.30
38798;SHT11;24546;52.240;16.826;2022-08-04T01:58:23;21.50;99.30
38798;SHT11;24546;52.240;16.826;2022-08-04T02:03:24;21.50;99.30
38798;SHT11;24546;52.240;16.826;2022-08-04T02:08:35;21.40;99.80
38798;SHT11;24546;52.240;16.826;2022-08-04T02:13:53;21.30;99.70
38798;SHT11;24546;52.240;16.826;2022-08-04T02:19:08;21.30;99.80
38798;SHT11;24546;52.240;16.826;2022-08-04T02:24:14;21.20;99.80
38798;SHT11;24546;52.240;16.826;2022-08-04T02:39:53;21.10;99.90
38798;SHT11;24546;52.240;16.826;2022-08-04T02:44:59;21.10;99.90
38798;SHT11;24546;52.240;16.826;2022-08-04T02:50:01;21.00;99.90
38798;SHT11;24546;52.240;16.826;2022-08-04T02:55:06;21.00;99.90
38798;SHT11;24546;52.240;16.826;2022-08-04T03:00:11;21.00;99.90
38798;SHT11;24546;52.240;16.826;2022-08-04T03:21:10;20.80;99.90
38798;SHT11;24546;52.240;16.826;2022-08-04T03:37:55;20.60;99.90
38798;SHT11;24546;52.240;16.826;2022-08-04T03:43:15;20.60;99.90
38798;SHT11;24546;52.240;16.826;2022-08-04T03:54:25;20.60;99.90
38798;SHT11;24546;52.240;16.826;2022-08-04T04:10:02;20.70;99.90
38798;SHT11;24546;52.240;16.826;2022-08-04T04:47:48;21.90;99.80
38798;SHT11;24546;52.240;16.826;2022-08-04T04:53:05;22.30;99.60
38798;SHT11;24546;52.240;16.826;2022-08-04T04:58:06;22.60;99.40
38798;SHT11;24546;52.240;16.826;2022-08-04T05:08:39;23.20;98.40
38798;SHT11;24546;52.240;16.826;2022-08-04T05:13:47;23.40;97.30
38798;SHT11;24546;52.240;16.826;2022-08-04T05:19:21;23.70;97.40
38798;SHT11;24546;52.240;16.826;2022-08-04T05:24:20;24.10;96.80
38798;SHT11;24546;52.240;16.826;2022-08-04T05:34:30;24.90;95.50
38798;SHT11;24546;52.240;16.826;2022-08-04T05:39:38;25.10;95.20
38798;SHT11;24546;52.240;16.826;2022-08-04T05:44:42;25.40;96.10
38798;SHT11;24546;52.240;16.826;2022-08-04T05:49:45;25.90;96.30
38798;SHT11;24546;52.240;16.826;2022-08-04T05:54:47;26.30;93.80
38798;SHT11;24546;52.240;16.826;2022-08-04T05:59:50;26.70;95.20
38798;SHT11;24546;52.240;16.826;2022-08-04T06:04:52;27.10;95.00
38798;SHT11;24546;52.240;16.826;2022-08-04T06:09:53;27.40;92.50
38798;SHT11;24546;52.240;16.826;2022-08-04T06:14:59;27.70;92.80
38798;SHT11;24546;52.240;16.826;2022-08-04T06:20:01;28.00;93.10
38798;SHT11;24546;52.240;16.826;2022-08-04T06:25:04;28.40;92.50
38798;SHT11;24546;52.240;16.826;2022-08-04T06:30:07;28.70;91.50
38798;SHT11;24546;52.240;16.826;2022-08-04T06:35:17;29.10;90.00
38798;SHT11;24546;52.240;16.826;2022-08-04T06:40:22;29.40;89.50
38798;SHT11;24546;52.240;16.826;2022-08-04T06:45:23;29.70;90.00
38798;SHT11;24546;52.240;16.826;2022-08-04T06:50:25;30.00;86.70
38798;SHT11;24546;52.240;16.826;2022-08-04T06:55:27;30.20;87.10
38798;SHT11;24546;52.240;16.826;2022-08-04T07:00:28;30.50;83.30
38798;SHT11;24546;52.240;16.826;2022-08-04T07:05:31;30.90;84.00
38798;SHT11;24546;52.240;16.826;2022-08-04T07:10:32;31.20;86.00
38798;SHT11;24546;52.240;16.826;2022-08-04T07:15:34;31.40;81.90
38798;SHT11;24546;52.240;16.826;2022-08-04T07:20:42;31.60;81.60
38798;SHT11;24546;52.240;16.826;2022-08-04T07:25:52;32.20;81.70
38798;SHT11;24546;52.240;16.826;2022-08-04T07:30:56;32.50;79.80
38798;SHT11;24546;52.240;16.826;2022-08-04T07:36:00;32.60;78.10
38798;SHT11;24546;52.240;16.826;2022-08-04T07:41:01;32.70;77.00
38798;SHT11;24546;52.240;16.826;2022-08-04T07:46:04;33.00;76.60
38798;SHT11;24546;52.240;16.826;2022-08-04T07:51:06;33.10;75.40
38798;SHT11;24546;52.240;16.826;2022-08-04T07:56:07;33.40;73.10
38798;SHT11;24546;52.240;16.826;2022-08-04T08:01:08;33.60;69.80
38798;SHT11;24546;52.240;16.826;2022-08-04T08:06:10;33.60;71.70
38798;SHT11;24546;52.240;16.826;2022-08-04T08:11:11;33.50;67.60
38798;SHT11;24546;52.240;16.826;2022-08-04T08:16:13;33.80;69.30
38798;SHT11;24546;52.240;16.826;2022-08-04T08:21:14;34.20;71.90
38798;SHT11;24546;52.240;16.826;2022-08-04T08:26:15;34.50;69.60
38798;SHT11;24546;52.240;16.826;2022-08-04T08:31:16;34.90;69.00
38798;SHT11;24546;52.240;16.826;2022-08-04T08:36:40;35.20;67.40
38798;SHT11;24546;52.240;16.826;2022-08-04T08:58:15;35.40;64.20
38798;SHT11;24546;52.240;16.826;2022-08-04T09:03:50;35.60;65.30
38798;SHT11;24546;52.240;16.826;2022-08-04T09:10:01;36.00;67.30
38798;SHT11;24546;52.240;16.826;2022-08-04T09:20:04;36.90;63.10
38798;SHT11;24546;52.240;16.826;2022-08-04T09:25:27;36.80;65.00
38798;SHT11;24546;52.240;16.826;2022-08-04T09:30:38;36.80;63.70
38798;SHT11;24546;52.240;16.826;2022-08-04T09:35:48;37.00;64.80
38798;SHT11;24546;52.240;16.826;2022-08-04T09:46:34;36.80;62.30
38798;SHT11;24546;52.240;16.826;2022-08-04T09:52:00;36.60;63.00
38798;SHT11;24546;52.240;16.826;2022-08-04T10:02:31;36.90;62.10
38798;SHT11;24546;52.240;16.826;2022-08-04T10:18:14;37.20;61.80
38798;SHT11;24546;52.240;16.826;2022-08-04T10:23:35;37.20;60.00
38798;SHT11;24546;52.240;16.826;2022-08-04T10:28:45;37.40;61.80
38798;SHT11;24546;52.240;16.826;2022-08-04T10:33:57;37.30;60.90
38798;SHT11;24546;52.240;16.826;2022-08-04T10:39:09;37.30;61.20
38798;SHT11;24546;52.240;16.826;2022-08-04T10:49:36;37.60;59.60
38798;SHT11;24546;52.240;16.826;2022-08-04T11:00:03;37.60;60.20
38798;SHT11;24546;52.240;16.826;2022-08-04T11:05:26;37.60;60.10
38798;SHT11;24546;52.240;16.826;2022-08-04T11:10:39;37.80;59.70
38798;SHT11;24546;52.240;16.826;2022-08-04T11:15:47;37.80;61.30
38798;SHT11;24546;52.240;16.826;2022-08-04T11:21:02;38.20;61.50
38798;SHT11;24546;52.240;16.826;2022-08-04T11:26:29;38.30;60.10
38798;SHT11;24546;52.240;16.826;2022-08-04T11:31:42;38.20;59.00
38798;SHT11;24546;52.240;16.826;2022-08-04T11:42:09;37.50;60.60
38798;SHT11;24546;52.240;16.826;2022-08-04T11:47:24;37.40;61.80
38798;SHT11;24546;52.240;16.826;2022-08-04T11:52:29;37.80;61.90
38798;SHT11;24546;52.240;16.826;2022-08-04T11:57:32;37.70;59.90
38798;SHT11;24546;52.240;16.826;2022-08-04T12:08:39;37.30;60.90
38798;SHT11;24546;52.240;16.826;2022-08-04T12:23:55;37.70;62.00
38798;SHT11;24546;52.240;16.826;2022-08-04T12:29:00;37.90;61.10
38798;SHT11;24546;52.240;16.826;2022-08-04T12:34:31;37.90;58.50
38798;SHT11;24546;52.240;16.826;2022-08-04T12:39:35;37.80;57.60
38798;SHT11;24546;52.240;16.826;2022-08-04T12:44:39;37.70;58.60
38798;SHT11;24546;52.240;16.826;2022-08-04T12:49:43;37.80;60.20
38798;SHT11;24546;52.240;16.826;2022-08-04T12:54:50;38.00;57.60
38798;SHT11;24546;52.240;16.826;2022-08-04T12:59:51;37.70;58.60
38798;SHT11;24546;52.240;16.826;2022-08-04T13:04:54;37.50;59.10
38798;SHT11;24546;52.240;16.826;2022-08-04T13:10:00;37.40;59.30
38798;SHT11;24546;52.240;16.826;2022-08-04T13:15:13;37.60;59.90
38798;SHT11;24546;52.240;16.826;2022-08-04T13:20:14;37.40;59.20
38798;SHT11;24546;52.240;16.826;2022-08-04T13:25:16;37.00;59.70
38798;SHT11;24546;52.240;16.826;2022-08-04T13:30:20;36.80;59.70
38798;SHT11;24546;52.240;16.826;2022-08-04T13:35:28;36.80;60.40
38798;SHT11;24546;52.240;16.826;2022-08-04T13:40:30;37.20;59.30
38798;SHT11;24546;52.240;16.826;2022-08-04T13:45:31;37.00;60.90
38798;SHT11;24546;52.240;16.826;2022-08-04T13:50:33;36.80;60.30
38798;SHT11;24546;52.240;16.826;2022-08-04T13:55:37;37.10;60.50
38798;SHT11;24546;52.240;16.826;2022-08-04T14:00:50;37.10;58.80
38798;SHT11;24546;52.240;16.826;2022-08-04T14:06:12;37.00;59.90
38798;SHT11;24546;52.240;16.826;2022-08-04T14:11:16;36.90;58.10
38798;SHT11;24546;52.240;16.826;2022-08-04T14:16:21;37.20;57.60
38798;SHT11;24546;52.240;16.826;2022-08-04T14:21:22;37.10;58.90
38798;SHT11;24546;52.240;16.826;2022-08-04T14:26:27;37.50;60.30
38798;SHT11;24546;52.240;16.826;2022-08-04T14:31:28;37.40;59.60
38798;SHT11;24546;52.240;16.826;2022-08-04T14:36:41;37.40;59.20
38798;SHT11;24546;52.240;16.826;2022-08-04T14:41:44;37.30;59.90
38798;SHT11;24546;52.240;16.826;2022-08-04T14:46:53;37.50;59.00
38798;SHT11;24546;52.240;16.826;2022-08-04T14:51:59;37.30;60.30
38798;SHT11;24546;52.240;16.826;2022-08-04T14:57:04;36.70;58.00
38798;SHT11;24546;52.240;16.826;2022-08-04T15:02:06;36.20;60.50
38798;SHT11;24546;52.240;16.826;2022-08-04T15:07:07;36.30;59.60
38798;SHT11;24546;52.240;16.826;2022-08-04T15:12:09;35.90;59.40
38798;SHT11;24546;52.240;16.826;2022-08-04T15:17:10;35.90;59.20
38798;SHT11;24546;52.240;16.826;2022-08-04T15:22:12;35.60;62.00
38798;SHT11;24546;52.240;16.826;2022-08-04T15:27:14;35.40;59.80
38798;SHT11;24546;52.240;16.826;2022-08-04T15:32:16;35.40;60.10
38798;SHT11;24546;52.240;16.826;2022-08-04T15:37:31;35.10;59.60
38798;SHT11;24546;52.240;16.826;2022-08-04T15:53:04;34.90;62.80
38798;SHT11;24546;52.240;16.826;2022-08-04T15:58:09;34.50;62.90
38798;SHT11;24546;52.240;16.826;2022-08-04T16:19:07;33.60;61.30
38798;SHT11;24546;52.240;16.826;2022-08-04T16:24:48;33.40;63.20
38798;SHT11;24546;52.240;16.826;2022-08-04T16:30:05;33.30;64.10
38798;SHT11;24546;52.240;16.826;2022-08-04T16:35:24;33.10;63.80
38798;SHT11;24546;52.240;16.826;2022-08-04T16:50:53;32.90;63.70
38798;SHT11;24546;52.240;16.826;2022-08-04T16:55:55;32.60;63.70
38798;SHT11;24546;52.240;16.826;2022-08-04T17:01:07;32.60;62.60
38798;SHT11;24546;52.240;16.826;2022-08-04T17:11:11;32.60;65.20
38798;SHT11;24546;52.240;16.826;2022-08-04T17:16:16;32.50;65.20
38798;SHT11;24546;52.240;16.826;2022-08-04T17:21:26;32.20;65.40
38798;SHT11;24546;52.240;16.826;2022-08-04T17:26:32;32.10;64.40
38798;SHT11;24546;52.240;16.826;2022-08-04T17:31:35;32.10;65.70
38798;SHT11;24546;52.240;16.826;2022-08-04T17:36:37;32.00;68.00
38798;SHT11;24546;52.240;16.826;2022-08-04T17:41:41;31.80;66.30
38798;SHT11;24546;52.240;16.826;2022-08-04T17:46:45;31.80;65.50
38798;SHT11;24546;52.240;16.826;2022-08-04T17:57:11;31.60;68.60
38798;SHT11;24546;52.240;16.826;2022-08-04T18:02:21;31.50;68.50
38798;SHT11;24546;52.240;16.826;2022-08-04T18:07:32;31.30;69.80
38798;SHT11;24546;52.240;16.826;2022-08-04T18:12:34;31.20;70.80
38798;SHT11;24546;52.240;16.826;2022-08-04T18:17:42;31.00;71.80
38798;SHT11;24546;52.240;16.826;2022-08-04T18:22:45;30.80;73.80
38798;SHT11;24546;52.240;16.826;2022-08-04T18:27:54;30.60;73.60
38798;SHT11;24546;52.240;16.826;2022-08-04T18:32:55;30.40;74.50
38798;SHT11;24546;52.240;16.826;2022-08-04T18:37:57;30.20;75.20
38798;SHT11;24546;52.240;16.826;2022-08-04T18:42:58;29.90;75.80
38798;SHT11;24546;52.240;16.826;2022-08-04T18:47:59;29.70;76.10
38798;SHT11;24546;52.240;16.826;2022-08-04T18:53:00;29.50;77.70
38798;SHT11;24546;52.240;16.826;2022-08-04T18:58:01;29.30;77.80
38798;SHT11;24546;52.240;16.826;2022-08-04T19:03:03;29.10;78.50
38798;SHT11;24546;52.240;16.826;2022-08-04T19:08:04;28.90;79.30
38798;SHT11;24546;52.240;16.826;2022-08-04T19:13:05;28.70;79.20
38798;SHT11;24546;52.240;16.826;2022-08-04T19:18:06;28.60;79.90
38798;SHT11;24546;52.240;16.826;2022-08-04T19:23:07;28.40;80.50
38798;SHT11;24546;52.240;16.826;2022-08-04T19:28:08;28.20;80.00
38798;SHT11;24546;52.240;16.826;2022-08-04T19:33:09;28.00;81.10
38798;SHT11;24546;52.240;16.826;2022-08-04T19:38:10;27.80;80.60
38798;SHT11;24546;52.240;16.826;2022-08-04T19:43:11;27.70;81.30
38798;SHT11;24546;52.240;16.826;2022-08-04T19:48:13;27.60;81.90
38798;SHT11;24546;52.240;16.826;2022-08-04T19:53:14;27.40;81.50
38798;SHT11;24546;52.240;16.826;2022-08-04T19:58:25;27.30;81.80
38798;SHT11;24546;52.240;16.826;2022-08-04T20:03:26;27.20;81.60
38798;SHT11;24546;52.240;16.826;2022-08-04T20:08:27;27.10;82.60
38798;SHT11;24546;52.240;16.826;2022-08-04T20:13:28;27.00;82.60
38798;SHT11;24546;52.240;16.826;2022-08-04T20:18:29;26.90;82.50
38798;SHT11;24546;52.240;16.826;2022-08-04T20:23:30;26.80;83.30
38798;SHT11;24546;52.240;16.826;2022-08-04T20:28:34;26.70;83.80
38798;SHT11;24546;52.240;16.826;2022-08-04T20:33:35;26.60;83.90
38798;SHT11;24546;52.240;16.826;2022-08-04T20:38:36;26.50;83.60
38798;SHT11;24546;52.240;16.826;2022-08-04T20:43:37;26.40;84.00
38798;SHT11;24546;52.240;16.826;2022-08-04T20:48:38;26.30;84.00
38798;SHT11;24546;52.240;16.826;2022-08-04T20:53:39;26.20;84.00
38798;SHT11;24546;52.240;16.826;2022-08-04T20:58:40;26.20;83.00
38798;SHT11;24546;52.240;16.826;2022-08-04T21:03:41;26.10;83.10
38798;SHT11;24546;52.240;16.826;2022-08-04T21:09:00;26.00;83.90
38798;SHT11;24546;52.240;16.826;2022-08-04T21:14:01;25.90;83.10
38798;SHT11;24546;52.240;16.826;2022-08-04T21:19:02;25.80;84.30
38798;SHT11;24546;52.240;16.826;2022-08-04T21:24:03;25.70;83.30
38798;SHT11;24546;52.240;16.826;2022-08-04T21:29:04;25.40;82.70
38798;SHT11;24546;52.240;16.826;2022-08-04T21:34:05;25.60;82.20
38798;SHT11;24546;52.240;16.826;2022-08-04T21:39:06;25.70;81.70
38798;SHT11;24546;52.240;16.826;2022-08-04T21:44:07;25.50;81.60
38798;SHT11;24546;52.240;16.826;2022-08-04T21:49:08;25.50;82.40
38798;SHT11;24546;52.240;16.826;2022-08-04T21:54:10;25.40;83.80
38798;SHT11;24546;52.240;16.826;2022-08-04T21:59:10;25.40;84.90
38798;SHT11;24546;52.240;16.826;2022-08-04T22:04:12;25.30;84.90
38798;SHT11;24546;52.240;16.826;2022-08-04T22:09:13;25.20;84.90
38798;SHT11;24546;52.240;16.826;2022-08-04T22:14:13;25.10;85.20
38798;SHT11;24546;52.240;16.826;2022-08-04T22:19:14;25.00;85.30
38798;SHT11;24546;52.240;16.826;2022-08-04T22:24:15;24.80;86.40
38798;SHT11;24546;52.240;16.826;2022-08-04T22:29:16;24.80;86.30
38798;SHT11;24546;52.240;16.826;2022-08-04T22:34:17;24.70;86.60
38798;SHT11;24546;52.240;16.826;2022-08-04T22:39:18;24.70;87.00
38798;SHT11;24546;52.240;16.826;2022-08-04T22:44:19;24.60;86.90
38798;SHT11;24546;52.240;16.826;2022-08-04T22:49:20;24.50;87.90
38798;SHT11;24546;52.240;16.826;2022-08-04T22:54:24;24.40;87.40
38798;SHT11;24546;52.240;16.826;2022-08-04T22:59:27;24.40;87.30
38798;SHT11;24546;52.240;16.826;2022-08-04T23:04:31;24.40;87.10
38798;SHT11;24546;52.240;16.826;2022-08-04T23:09:33;24.30;86.90
38798;SHT11;24546;52.240;16.826;2022-08-04T23:14:34;24.30;87.70
38798;SHT11;24546;52.240;16.826;2022-08-04T23:19:35;24.20;89.40
38798;SHT11;24546;52.240;16.826;2022-08-04T23:24:36;24.20;90.40
38798;SHT11;24546;52.240;16.826;2022-08-04T23:29:37;24.10;90.50
38798;SHT11;24546;52.240;16.826;2022-08-04T23:34:37;24.00;90.20
38798;SHT11;24546;52.240;16.826;2022-08-04T23:39:39;23.90;90.20
38798;SHT11;24546;52.240;16.826;2022-08-04T23:44:40;23.90;90.00
38798;SHT11;24546;52.240;16.826;2022-08-04T23:49:41;23.80;90.30
38798;SHT11;24546;52.240;16.826;2022-08-04T23:54:42;23.80;90.10
38798;SHT11;24546;52.240;16.826;2022-08-04T23:59:43;23.70;89.90
